Time;durP1;ratioP1;P1;durP2;ratioP2;P2;SDS_P1;SDS_P2;PMS_P1;PMS_P2;Temp;Humidity;BMP_temperature;BMP_pressure;BME280_temperature;BME280_humidity;BME280_pressure;Samples;Min_cycle;Max_cycle;Signal;HPM_P1;HPM_P2
2023/01/09 00:00:44;;;;;;;1.35;0.13;;;7.50;99.90;;;;;;5094969;28;20028;-73
2023/01/09 00:03:09;;;;;;;1.25;0.17;;;7.40;99.90;;;;;;5096344;28;20032;-74
2023/01/09 00:05:35;;;;;;;0.73;0.13;;;7.40;99.90;;;;;;5094283;28;20418;-73
2023/01/09 00:08:01;;;;;;;2.22;0.20;;;7.30;99.90;;;;;;5090242;28;20020;-73
2023/01/09 00:10:27;;;;;;;1.27;0.10;;;7.30;99.90;;;;;;5091971;28;20093;-73
2023/01/09 00:12:52;;;;;;;0.65;0.15;;;7.20;99.90;;;;;;5091836;28;20499;-73
2023/01/09 00:15:18;;;;;;;1.25;0.10;;;7.20;99.90;;;;;;5093777;28;20066;-73
2023/01/09 00:17:46;;;;;;;0.40;0.05;;;7.10;99.90;;;;;;5097842;28;20089;-73
2023/01/09 00:20:13;;;;;;;3.80;0.10;;;7.10;99.90;;;;;;5093512;28;20777;-72
2023/01/09 00:22:38;;;;;;;0.38;0.05;;;7.00;99.90;;;;;;5095593;28;20114;-73
2023/01/09 00:25:05;;;;;;;0.70;0.17;;;7.00;99.90;;;;;;5096822;28;20149;-73
2023/01/09 00:27:32;;;;;;;1.38;0.10;;;6.90;99.90;;;;;;5093881;28;20574;-73
2023/01/09 00:29:58;;;;;;;0.55;0.10;;;6.90;99.90;;;;;;5094378;28;20031;-73
2023/01/09 00:32:23;;;;;;;1.60;0.20;;;6.90;99.90;;;;;;5089832;28;20032;-73
2023/01/09 00:34:49;;;;;;;1.10;0.10;;;6.80;99.90;;;;;;5093252;28;20034;-73
2023/01/09 00:37:15;;;;;;;1.55;0.10;;;6.70;99.90;;;;;;5092455;28;20020;-74
2023/01/09 00:39:41;;;;;;;0.80;0.10;;;6.70;99.90;;;;;;5101083;28;20067;-73
2023/01/09 00:42:10;;;;;;;0.80;0.10;;;6.60;99.90;;;;;;5096660;28;20035;-73
2023/01/09 00:45:06;;;;;;;1.85;0.10;;;6.60;99.90;;;;;;5092044;28;20411;-73
2023/01/09 00:47:35;;;;;;;0.80;0.10;;;6.50;99.90;;;;;;5081892;28;20039;-73
2023/01/09 00:50:19;;;;;;;0.55;0.10;;;6.40;99.90;;;;;;5097309;28;20032;-73
2023/01/09 00:52:46;;;;;;;1.02;0.15;;;6.40;99.90;;;;;;5091306;28;20036;-73
2023/01/09 00:55:12;;;;;;;0.43;0.20;;;6.30;99.90;;;;;;5096326;28;20032;-74
2023/01/09 00:57:38;;;;;;;1.17;0.20;;;6.30;99.90;;;;;;5107554;28;20034;-73
2023/01/09 01:00:04;;;;;;;0.40;0.10;;;6.30;99.90;;;;;;5098177;28;20023;-73
2023/01/09 01:02:30;;;;;;;0.57;0.20;;;6.20;99.90;;;;;;5090691;28;20035;-74
2023/01/09 01:07:41;;;;;;;1.45;0.20;;;6.20;99.90;;;;;;5096254;28;20105;-73
2023/01/09 01:10:15;;;;;;;0.77;0.20;;;6.10;99.90;;;;;;5091249;28;20094;-73
2023/01/09 01:12:41;;;;;;;0.93;0.20;;;6.00;99.90;;;;;;5087260;28;20408;-73
2023/01/09 01:15:08;;;;;;;0.93;0.40;;;6.00;99.90;;;;;;5086003;28;20055;-73
2023/01/09 01:17:35;;;;;;;0.98;0.28;;;6.00;99.90;;;;;;5088177;28;20517;-73
2023/01/09 01:20:02;;;;;;;0.82;0.15;;;6.00;99.90;;;;;;5100657;28;20042;-73
2023/01/09 01:22:27;;;;;;;1.42;0.20;;;5.90;99.90;;;;;;5091569;28;20024;-73
2023/01/09 01:24:53;;;;;;;6.22;0.57;;;5.90;99.90;;;;;;5090633;28;20028;-74
2023/01/09 01:27:18;;;;;;;1.98;0.30;;;5.90;99.90;;;;;;5102050;28;20027;-73
2023/01/09 01:29:44;;;;;;;0.85;0.28;;;5.90;99.90;;;;;;5098633;28;20027;-74
2023/01/09 01:32:10;;;;;;;1.27;0.30;;;5.90;99.90;;;;;;5091035;28;20052;-73
2023/01/09 01:34:36;;;;;;;2.47;0.60;;;5.90;99.90;;;;;;5094605;28;20083;-73
2023/01/09 01:37:01;;;;;;;0.85;0.30;;;5.90;99.90;;;;;;5087360;28;20484;-73
2023/01/09 01:39:27;;;;;;;2.33;0.30;;;5.80;99.90;;;;;;5087019;28;20047;-74
2023/01/09 01:41:52;;;;;;;2.80;0.30;;;5.80;99.90;;;;;;5092392;28;20039;-73
2023/01/09 01:44:55;;;;;;;1.33;0.30;;;5.80;99.90;;;;;;5091206;28;20020;-73
2023/01/09 01:47:27;;;;;;;1.85;0.30;;;5.80;99.90;;;;;;5092129;28;20031;-73
2023/01/09 01:49:53;;;;;;;3.05;0.40;;;5.70;99.90;;;;;;5095394;28;20035;-73
2023/01/09 01:52:20;;;;;;;2.10;0.30;;;5.70;99.90;;;;;;5090126;28;20027;-72
2023/01/09 01:54:46;;;;;;;2.50;0.55;;;5.70;99.90;;;;;;5094253;28;20403;-73
2023/01/09 01:57:12;;;;;;;1.05;0.20;;;5.70;99.90;;;;;;5091126;28;20032;-73
2023/01/09 01:59:49;;;;;;;2.67;0.30;;;5.60;99.90;;;;;;5089689;28;20030;-74
2023/01/09 02:02:23;;;;;;;3.10;0.30;;;5.60;99.90;;;;;;5083808;28;20020;-72
2023/01/09 02:04:52;;;;;;;1.67;0.40;;;5.60;99.90;;;;;;5095092;28;20024;-73
2023/01/09 02:07:17;;;;;;;5.25;0.40;;;5.50;99.90;;;;;;5092349;28;20032;-73
2023/01/09 02:09:43;;;;;;;1.75;0.30;;;5.50;99.90;;;;;;5095352;28;20132;-73
2023/01/09 02:12:24;;;;;;;1.70;0.40;;;5.40;99.90;;;;;;5096230;28;20035;-73
2023/01/09 02:15:04;;;;;;;3.30;0.40;;;5.40;99.90;;;;;;5094007;28;20399;-73
2023/01/09 02:18:08;;;;;;;1.58;0.30;;;5.30;99.90;;;;;;5089363;28;20115;-73
2023/01/09 02:21:04;;;;;;;1.98;0.32;;;5.30;99.90;;;;;;5089133;28;20075;-74
2023/01/09 02:24:04;;;;;;;1.58;0.40;;;5.30;99.90;;;;;;5102999;27;20113;-73
2023/01/09 02:27:17;;;;;;;3.33;0.40;;;5.30;99.90;;;;;;5096927;28;20097;-73
2023/01/09 02:29:54;;;;;;;2.03;0.80;;;5.20;99.90;;;;;;5013957;28;20159;-73
2023/01/09 02:32:35;;;;;;;2.10;0.40;;;5.20;99.90;;;;;;5018708;28;20565;-73
2023/01/09 02:35:44;;;;;;;2.70;0.40;;;5.20;99.90;;;;;;5067664;28;20457;-73
2023/01/09 02:38:21;;;;;;;3.30;0.43;;;5.20;99.90;;;;;;5090812;28;20077;-73
2023/01/09 02:40:57;;;;;;;1.88;0.40;;;5.20;99.90;;;;;;5092650;28;20392;-73
2023/01/09 02:43:24;;;;;;;1.95;0.43;;;5.20;99.90;;;;;;5094570;28;20024;-73
2023/01/09 02:45:49;;;;;;;3.38;0.40;;;5.20;99.90;;;;;;5090163;28;20116;-73
2023/01/09 02:48:15;;;;;;;2.85;0.40;;;5.20;99.90;;;;;;5090658;28;20051;-73
2023/01/09 02:50:53;;;;;;;4.68;0.43;;;5.20;99.90;;;;;;5087372;28;20055;-73
2023/01/09 02:53:57;;;;;;;4.35;0.60;;;5.20;99.90;;;;;;5092965;28;20028;-74
2023/01/09 02:56:57;;;;;;;4.22;0.43;;;5.20;99.90;;;;;;5095414;28;20104;-73
2023/01/09 02:59:39;;;;;;;2.63;0.47;;;5.20;99.90;;;;;;5095878;28;20116;-73
2023/01/09 03:02:17;;;;;;;;;;;5.20;99.90;;;;;;5091897;28;20030;-74
2023/01/09 03:05:15;;;;;;;3.15;0.50;;;5.20;99.90;;;;;;5087973;28;19908;-74
2023/01/09 03:07:49;;;;;;;4.72;0.50;;;5.10;99.90;;;;;;5093200;28;20028;-73
2023/01/09 03:10:24;;;;;;;3.10;0.60;;;5.10;99.90;;;;;;5095256;28;20032;-74
2023/01/09 03:12:52;;;;;;;3.10;0.60;;;5.10;99.90;;;;;;5085979;28;20487;-73
2023/01/09 03:15:22;;;;;;;5.10;0.70;;;5.10;99.90;;;;;;5101258;28;20035;-71
2023/01/09 03:17:49;;;;;;;5.22;0.65;;;5.10;99.90;;;;;;5094436;28;20032;-71
2023/01/09 03:20:22;;;;;;;6.43;1.15;;;5.10;99.90;;;;;;5092820;28;20016;-72
2023/01/09 03:22:54;;;;;;;4.60;0.60;;;5.10;99.90;;;;;;5096150;28;20114;-72
2023/01/09 03:25:20;;;;;;;5.43;0.70;;;5.10;99.90;;;;;;5100753;28;20130;-72
2023/01/09 03:27:45;;;;;;;4.28;0.60;;;5.10;99.90;;;;;;5103138;28;20107;-72
2023/01/09 03:30:11;;;;;;;3.75;0.70;;;5.00;99.90;;;;;;5091711;28;20475;-72
2023/01/09 03:32:37;;;;;;;4.30;0.57;;;5.00;99.90;;;;;;5093504;28;20052;-72
2023/01/09 03:35:02;;;;;;;8.95;0.70;;;5.00;99.90;;;;;;5094147;28;20387;-72
2023/01/09 03:37:28;;;;;;;2.08;0.57;;;5.00;99.90;;;;;;5078756;28;20025;-72
2023/01/09 03:39:53;;;;;;;3.65;0.50;;;4.90;99.90;;;;;;5093767;28;20032;-72
2023/01/09 03:42:19;;;;;;;3.45;0.60;;;4.90;99.90;;;;;;5095376;28;20020;-72
2023/01/09 03:44:44;;;;;;;5.28;0.70;;;4.90;99.90;;;;;;5097342;28;20106;-72
2023/01/09 03:47:10;;;;;;;1.65;0.50;;;4.90;99.90;;;;;;5091882;28;20038;-72
2023/01/09 03:49:35;;;;;;;3.42;0.60;;;4.90;99.90;;;;;;5101952;28;20070;-72
2023/01/09 03:52:01;;;;;;;3.17;0.50;;;4.90;99.90;;;;;;5089138;28;20032;-72
2023/01/09 03:54:26;;;;;;;3.75;1.38;;;4.90;99.90;;;;;;5089744;28;20028;-72
2023/01/09 03:56:52;;;;;;;1.20;0.40;;;4.90;99.90;;;;;;5091170;28;20028;-72
2023/01/09 03:59:18;;;;;;;4.72;0.77;;;4.90;99.90;;;;;;5090368;28;20365;-71
2023/01/09 04:01:43;;;;;;;2.33;0.50;;;4.90;99.90;;;;;;5091189;28;20163;-72
2023/01/09 04:04:09;;;;;;;5.00;0.60;;;4.90;99.90;;;;;;5093774;28;20111;-72
2023/01/09 04:06:34;;;;;;;3.05;0.60;;;4.90;99.90;;;;;;5098286;28;20028;-72
2023/01/09 04:09:00;;;;;;;4.25;0.57;;;4.90;99.90;;;;;;5098977;28;20036;-72
2023/01/09 04:11:25;;;;;;;3.92;0.70;;;4.90;99.90;;;;;;5100081;28;20031;-72
2023/01/09 04:13:51;;;;;;;4.22;0.57;;;4.90;99.90;;;;;;5097107;28;20088;-72
2023/01/09 04:16:16;;;;;;;6.47;0.80;;;4.80;99.90;;;;;;5094599;28;20036;-72
2023/01/09 04:18:42;;;;;;;4.97;0.70;;;4.80;99.90;;;;;;5087130;28;20059;-72
2023/01/09 04:21:07;;;;;;;3.53;0.60;;;4.90;99.90;;;;;;5097461;28;20421;-72
2023/01/09 04:23:33;;;;;;;6.80;0.82;;;4.80;99.90;;;;;;5091749;28;20028;-72
2023/01/09 04:25:58;;;;;;;4.20;0.75;;;4.90;99.90;;;;;;5096615;28;20024;-72
2023/01/09 04:28:24;;;;;;;5.32;0.63;;;4.80;99.90;;;;;;5095586;28;20031;-72
2023/01/09 04:30:49;;;;;;;6.78;0.77;;;4.90;99.90;;;;;;5091112;28;20026;-73
2023/01/09 04:33:15;;;;;;;9.32;1.02;;;4.90;99.90;;;;;;5094059;28;20110;-72
2023/01/09 04:35:40;;;;;;;3.10;0.70;;;5.00;99.90;;;;;;5089077;28;20472;-72
2023/01/09 04:38:06;;;;;;;4.22;0.82;;;5.00;99.90;;;;;;5092307;28;20032;-72
2023/01/09 04:40:31;;;;;;;4.88;1.10;;;5.00;99.90;;;;;;5096455;28;20479;-72
2023/01/09 04:42:57;;;;;;;5.57;0.80;;;5.00;99.90;;;;;;5091737;28;20488;-72
2023/01/09 04:45:22;;;;;;;6.78;1.20;;;5.00;99.90;;;;;;5091882;28;20069;-72
2023/01/09 04:47:48;;;;;;;5.95;1.70;;;5.00;99.90;;;;;;5084479;28;20085;-72
2023/01/09 04:50:13;;;;;;;5.25;1.40;;;5.10;99.90;;;;;;5093565;28;20531;-72
2023/01/09 04:52:39;;;;;;;4.50;1.00;;;5.10;99.90;;;;;;5094222;28;20050;-72
2023/01/09 04:55:06;;;;;;;8.70;1.73;;;5.10;99.90;;;;;;5093090;28;20028;-72
2023/01/09 04:57:32;;;;;;;8.10;1.58;;;5.10;99.90;;;;;;5103668;28;20031;-72
2023/01/09 04:59:57;;;;;;;6.63;1.17;;;5.10;99.90;;;;;;5093834;28;20028;-72
2023/01/09 05:02:23;;;;;;;10.93;1.27;;;5.10;99.90;;;;;;5093432;28;20024;-72
2023/01/09 05:04:48;;;;;;;4.90;1.20;;;5.20;99.90;;;;;;5091898;28;20353;-72
2023/01/09 05:07:14;;;;;;;7.70;1.50;;;5.10;99.90;;;;;;5090456;28;20031;-72
2023/01/09 05:09:40;;;;;;;9.38;1.38;;;5.20;99.90;;;;;;5099892;28;20090;-72
2023/01/09 05:12:05;;;;;;;6.93;1.25;;;5.20;99.90;;;;;;5084965;28;20495;-72
2023/01/09 05:14:31;;;;;;;6.35;0.93;;;5.20;99.90;;;;;;5099685;28;20370;-72
2023/01/09 05:16:56;;;;;;;4.97;0.80;;;5.30;99.90;;;;;;5101985;28;20027;-72
2023/01/09 05:19:22;;;;;;;4.70;0.70;;;5.40;99.90;;;;;;5090124;28;20062;-72
2023/01/09 05:21:48;;;;;;;5.25;0.70;;;5.40;99.90;;;;;;5092861;28;20024;-72
2023/01/09 05:24:13;;;;;;;8.80;2.38;;;5.50;99.90;;;;;;5092951;28;20498;-72
2023/01/09 05:26:39;;;;;;;4.80;0.80;;;5.50;99.90;;;;;;5093276;28;20028;-72
2023/01/09 05:29:04;;;;;;;5.22;0.60;;;5.60;99.90;;;;;;5096326;28;20024;-72
2023/01/09 05:31:30;;;;;;;4.78;1.27;;;5.60;99.90;;;;;;5094322;28;20156;-72
2023/01/09 05:33:58;;;;;;;8.63;1.15;;;5.50;99.90;;;;;;5091738;28;20097;-72
2023/01/09 05:36:23;;;;;;;6.05;0.80;;;5.50;99.90;;;;;;5090297;28;20050;-72
2023/01/09 05:38:49;;;;;;;6.85;0.65;;;5.50;99.90;;;;;;5080946;28;20387;-73
2023/01/09 05:41:14;;;;;;;5.38;0.60;;;5.50;99.90;;;;;;5084548;28;20078;-73
2023/01/09 05:43:40;;;;;;;5.25;1.02;;;5.50;99.90;;;;;;5078591;28;20035;-72
2023/01/09 05:46:05;;;;;;;5.18;0.95;;;5.60;99.90;;;;;;5090514;28;20016;-72
2023/01/09 05:48:31;;;;;;;2.78;0.50;;;5.60;99.90;;;;;;5087510;28;20042;-73
2023/01/09 05:50:56;;;;;;;5.90;0.60;;;5.70;99.90;;;;;;5087027;28;20020;-72
2023/01/09 05:53:22;;;;;;;4.13;1.23;;;5.70;99.90;;;;;;5087706;28;20040;-72
2023/01/09 05:55:47;;;;;;;5.03;0.50;;;5.70;99.90;;;;;;5085983;28;20032;-73
2023/01/09 05:58:13;;;;;;;4.05;0.50;;;5.70;99.90;;;;;;5086972;28;20024;-73
2023/01/09 06:00:38;;;;;;;4.38;0.55;;;5.70;99.90;;;;;;5088166;28;20456;-73
2023/01/09 06:03:04;;;;;;;8.05;1.65;;;5.80;99.90;;;;;;5089635;28;20031;-73
2023/01/09 06:05:30;;;;;;;3.85;0.47;;;5.90;99.90;;;;;;5089940;28;20067;-73
2023/01/09 06:07:55;;;;;;;9.00;1.30;;;5.90;99.90;;;;;;5080828;28;20031;-74
2023/01/09 06:10:21;;;;;;;3.90;0.60;;;6.00;99.90;;;;;;5090935;28;20035;-73
2023/01/09 06:12:48;;;;;;;7.38;0.60;;;6.10;99.90;;;;;;5085363;28;20028;-73
2023/01/09 06:15:14;;;;;;;9.93;1.10;;;6.20;99.90;;;;;;5091468;28;20043;-73
2023/01/09 06:17:40;;;;;;;7.63;0.95;;;6.20;99.90;;;;;;5090394;28;20024;-73
2023/01/09 06:20:07;;;;;;;8.38;1.08;;;6.20;99.90;;;;;;5091041;28;20032;-73
2023/01/09 06:22:32;;;;;;;4.47;0.60;;;6.30;99.90;;;;;;5084115;28;20059;-73
2023/01/09 06:24:58;;;;;;;5.47;0.82;;;6.30;99.90;;;;;;5079193;28;20500;-73
2023/01/09 06:27:23;;;;;;;7.32;0.57;;;6.40;99.90;;;;;;5082047;28;20471;-73
2023/01/09 06:29:49;;;;;;;7.47;0.80;;;6.40;99.90;;;;;;5078900;28;20565;-73
2023/01/09 06:32:17;;;;;;;7.65;0.60;;;6.40;99.90;;;;;;5087489;28;20044;-73
2023/01/09 06:34:43;;;;;;;9.15;1.08;;;6.50;99.90;;;;;;5078140;28;20040;-73
2023/01/09 06:37:09;;;;;;;4.45;0.50;;;6.50;99.90;;;;;;5083581;28;20379;-73
2023/01/09 06:39:34;;;;;;;9.40;0.60;;;6.50;99.90;;;;;;5080834;28;20028;-73
2023/01/09 06:42:00;;;;;;;8.13;0.50;;;6.40;99.90;;;;;;5091788;28;20024;-74
2023/01/09 06:44:25;;;;;;;6.20;0.47;;;6.40;99.90;;;;;;5090200;28;20035;-72
2023/01/09 06:46:51;;;;;;;8.90;0.68;;;6.50;99.90;;;;;;5083422;28;20032;-72
2023/01/09 06:49:22;;;;;;;7.57;0.50;;;6.50;99.90;;;;;;5093435;28;20036;-71
2023/01/09 06:51:50;;;;;;;8.30;0.50;;;6.50;99.90;;;;;;5098153;28;20028;-71
2023/01/09 06:54:20;;;;;;;8.82;0.75;;;6.50;99.90;;;;;;5089026;28;20032;-73
2023/01/09 06:56:46;;;;;;;3.15;0.40;;;6.50;99.90;;;;;;5083999;28;20032;-73
2023/01/09 06:59:12;;;;;;;7.05;0.70;;;6.50;99.90;;;;;;5087992;28;20039;-73
2023/01/09 07:01:38;;;;;;;7.97;0.68;;;6.60;99.90;;;;;;5084105;28;20043;-74
2023/01/09 07:04:11;;;;;;;6.60;0.50;;;6.60;99.90;;;;;;5079170;28;20056;-73
2023/01/09 07:06:38;;;;;;;;;;;6.60;99.90;;;;;;5083380;28;20076;-73
2023/01/09 07:09:12;;;;;;;6.10;0.50;;;6.70;99.90;;;;;;5079952;28;19908;-73
2023/01/09 07:11:37;;;;;;;7.05;0.60;;;6.60;99.90;;;;;;5079778;28;20039;-73
2023/01/09 07:14:03;;;;;;;3.80;0.68;;;6.60;99.90;;;;;;5080889;28;20028;-73
2023/01/09 07:16:29;;;;;;;5.45;0.73;;;6.60;99.90;;;;;;5093474;28;20103;-73
2023/01/09 07:18:54;;;;;;;8.07;0.60;;;6.70;99.90;;;;;;5090334;28;20085;-74
2023/01/09 07:21:20;;;;;;;5.18;0.60;;;6.70;99.90;;;;;;5078186;28;20373;-74
2023/01/09 07:23:45;;;;;;;5.70;0.50;;;6.70;99.90;;;;;;5081479;28;20529;-74
2023/01/09 07:26:11;;;;;;;8.32;0.68;;;6.70;99.90;;;;;;5081897;28;20032;-73
2023/01/09 07:28:36;;;;;;;8.63;0.90;;;6.70;99.90;;;;;;5082055;28;20360;-73
2023/01/09 07:31:03;;;;;;;7.85;0.93;;;6.70;99.90;;;;;;5080341;28;20048;-74
2023/01/09 07:33:29;;;;;;;6.50;0.80;;;6.70;99.90;;;;;;5080493;28;20028;-72
2023/01/09 07:35:55;;;;;;;7.47;0.57;;;6.80;99.90;;;;;;5082183;28;20039;-72
2023/01/09 07:38:20;;;;;;;6.72;0.55;;;6.80;99.90;;;;;;5071916;28;20028;-72
2023/01/09 07:40:46;;;;;;;6.00;0.50;;;6.80;99.90;;;;;;5077030;28;20090;-72
2023/01/09 07:43:11;;;;;;;6.97;0.50;;;6.80;99.90;;;;;;5087373;28;20020;-72
2023/01/09 07:45:37;;;;;;;3.67;0.70;;;6.90;99.90;;;;;;5080435;28;20048;-73
2023/01/09 07:48:02;;;;;;;5.85;1.08;;;6.90;99.90;;;;;;5082358;28;20070;-72
2023/01/09 07:50:28;;;;;;;5.10;0.70;;;6.90;99.90;;;;;;5084005;28;20120;-73
2023/01/09 07:52:53;;;;;;;6.70;1.00;;;6.90;99.90;;;;;;5085703;28;20039;-73
2023/01/09 07:55:19;;;;;;;5.82;0.73;;;7.00;99.90;;;;;;5083045;28;20089;-73
2023/01/09 07:57:49;;;;;;;7.93;1.17;;;7.00;99.90;;;;;;5085477;28;20370;-74
2023/01/09 08:00:14;;;;;;;7.70;0.90;;;7.00;99.90;;;;;;5081050;28;20503;-74
2023/01/09 08:02:40;;;;;;;6.88;1.10;;;7.00;99.90;;;;;;5088491;28;20031;-74
2023/01/09 08:05:07;;;;;;;6.43;1.02;;;7.00;99.90;;;;;;5093620;28;20151;-75
2023/01/09 08:07:33;;;;;;;10.45;0.90;;;7.00;99.90;;;;;;5085528;28;20527;-74
2023/01/09 08:09:59;;;;;;;4.32;1.45;;;7.00;99.90;;;;;;5088581;28;20024;-74
2023/01/09 08:12:24;;;;;;;10.00;1.15;;;7.00;99.90;;;;;;5081166;28;20031;-75
2023/01/09 08:14:50;;;;;;;5.97;1.50;;;7.10;99.90;;;;;;5087567;28;20043;-75
2023/01/09 08:17:16;;;;;;;6.68;1.08;;;7.10;99.90;;;;;;5082590;28;20020;-75
2023/01/09 08:19:42;;;;;;;6.70;1.25;;;7.00;99.90;;;;;;5091855;28;20031;-74
2023/01/09 08:22:08;;;;;;;7.70;1.70;;;7.10;99.90;;;;;;5080736;28;20019;-74
2023/01/09 08:24:35;;;;;;;8.50;1.30;;;7.10;99.90;;;;;;5086012;28;20480;-74
2023/01/09 08:27:01;;;;;;;6.80;1.30;;;7.10;99.90;;;;;;5081383;28;20107;-74
2023/01/09 08:29:27;;;;;;;4.32;1.33;;;7.10;99.90;;;;;;5082718;28;20468;-74
2023/01/09 08:31:53;;;;;;;2.88;1.20;;;7.10;99.90;;;;;;5078305;28;20040;-74
2023/01/09 08:34:19;;;;;;;4.95;1.25;;;7.20;99.90;;;;;;5083716;28;20573;-74
2023/01/09 08:36:44;;;;;;;2.72;1.20;;;7.20;99.90;;;;;;5081273;28;20032;-74
2023/01/09 08:39:10;;;;;;;5.82;2.03;;;7.20;99.90;;;;;;5083698;28;20040;-74
2023/01/09 08:47:06;;;;;;;4.75;1.20;;;7.30;99.90;;;;;;5085468;28;20151;-73
2023/01/09 08:49:33;;;;;;;7.10;1.50;;;7.30;99.90;;;;;;5084726;28;20472;-73
2023/01/09 08:51:59;;;;;;;10.20;1.80;;;7.30;99.90;;;;;;5087283;28;20035;-73
2023/01/09 08:54:25;;;;;;;5.88;1.25;;;7.30;99.90;;;;;;5088959;28;20040;-73
2023/01/09 08:56:50;;;;;;;7.65;1.60;;;7.30;99.90;;;;;;5084201;28;20433;-73
2023/01/09 08:59:16;;;;;;;7.15;1.70;;;7.20;99.90;;;;;;5087394;28;20344;-73
2023/01/09 09:01:42;;;;;;;9.93;2.25;;;7.20;99.90;;;;;;5091891;28;20391;-73
2023/01/09 09:04:07;;;;;;;11.02;2.30;;;7.20;99.90;;;;;;5091054;28;20093;-74
2023/01/09 09:06:33;;;;;;;6.05;2.60;;;7.20;99.90;;;;;;5089711;28;20024;-73
2023/01/09 09:09:02;;;;;;;4.65;1.95;;;7.20;99.90;;;;;;5082949;28;20039;-73
2023/01/09 09:11:32;;;;;;;7.60;2.15;;;7.20;99.90;;;;;;5086220;28;20026;-74
2023/01/09 09:13:59;;;;;;;7.13;2.15;;;7.20;99.90;;;;;;5089021;28;20495;-73
2023/01/09 09:16:25;;;;;;;4.15;1.50;;;7.20;99.90;;;;;;5079301;28;20024;-74
2023/01/09 09:18:51;;;;;;;4.05;1.75;;;7.20;99.90;;;;;;5090684;28;20027;-74
2023/01/09 09:21:17;;;;;;;3.60;1.52;;;7.20;99.90;;;;;;5090172;28;20017;-73
2023/01/09 09:23:45;;;;;;;5.45;1.40;;;7.20;99.90;;;;;;5095457;28;20054;-73
2023/01/09 09:26:11;;;;;;;4.97;1.40;;;7.20;99.90;;;;;;5091005;28;20540;-74
2023/01/09 09:28:36;;;;;;;3.85;1.10;;;7.30;99.90;;;;;;5088736;28;20024;-74
2023/01/09 09:31:06;;;;;;;5.47;1.38;;;7.30;99.90;;;;;;5086694;28;20155;-73
2023/01/09 09:33:31;;;;;;;4.97;1.75;;;7.30;99.90;;;;;;5076399;28;20472;-75
2023/01/09 09:35:59;;;;;;;4.75;1.40;;;7.30;99.90;;;;;;5073600;28;20039;-73
2023/01/09 09:38:25;;;;;;;5.18;1.27;;;7.40;99.90;;;;;;5066027;28;20030;-73
2023/01/09 09:44:41;;;;;;;5.57;1.58;;;7.40;99.90;;;;;;5072884;28;20020;-73
2023/01/09 09:47:15;;;;;;;4.70;2.03;;;7.50;99.90;;;;;;5081214;28;20031;-73
2023/01/09 09:50:10;;;;;;;;;;;7.60;99.90;;;;;;5086283;28;20065;-72
2023/01/09 09:53:04;;;;;;;4.47;2.40;;;7.60;99.90;;;;;;5068330;28;20367;-73
2023/01/09 09:55:33;;;;;;;8.75;3.50;;;7.60;99.90;;;;;;5091299;28;20082;-73
2023/01/09 09:58:03;;;;;;;8.65;3.22;;;7.60;99.90;;;;;;5087643;28;20475;-73
2023/01/09 10:00:29;;;;;;;8.10;3.97;;;7.60;99.90;;;;;;5094243;28;20449;-73
2023/01/09 10:03:32;;;;;;;8.15;3.80;;;7.70;99.90;;;;;;5086084;28;20052;-73
2023/01/09 10:06:01;;;;;;;7.82;3.17;;;7.80;99.90;;;;;;5101955;28;20027;-73
2023/01/09 10:08:35;;;;;;;7.80;2.88;;;7.90;99.90;;;;;;5095399;28;20492;-73
2023/01/09 10:11:02;;;;;;;8.63;3.30;;;7.90;99.90;;;;;;5079619;28;20024;-73
2023/01/09 10:16:36;;;;;;;6.30;2.05;;;8.00;99.90;;;;;;5084228;28;20611;-73
2023/01/09 10:19:23;;;;;;;4.70;1.77;;;8.00;99.90;;;;;;5075274;28;20479;-73
2023/01/09 10:22:33;;;;;;;7.53;2.90;;;8.00;99.90;;;;;;5090597;28;20032;-73
2023/01/09 10:25:11;;;;;;;9.98;2.55;;;8.00;99.90;;;;;;5089992;28;20040;-74
2023/01/09 10:27:57;;;;;;;6.03;2.40;;;8.10;99.90;;;;;;5101786;28;20020;-73
2023/01/09 10:30:36;;;;;;;6.00;2.42;;;8.20;99.90;;;;;;5085710;28;20020;-73
2023/01/09 10:33:19;;;;;;;7.82;2.53;;;8.30;99.90;;;;;;5088616;28;20063;-74
2023/01/09 10:36:26;;;;;;;7.80;2.45;;;8.40;99.90;;;;;;5094171;28;20027;-74
2023/01/09 10:38:56;;;;;;;8.23;2.97;;;8.50;99.90;;;;;;5062778;28;20043;-74
2023/01/09 10:41:30;;;;;;;7.28;2.90;;;8.50;99.90;;;;;;5097466;28;20069;-74
2023/01/09 10:44:15;;;;;;;5.20;2.58;;;8.50;99.90;;;;;;5089056;28;20031;-75
2023/01/09 10:46:55;;;;;;;9.68;3.25;;;8.40;99.90;;;;;;5080249;28;20024;-74
2023/01/09 10:49:22;;;;;;;5.68;1.88;;;8.30;99.90;;;;;;5085431;28;20076;-74
2023/01/09 10:51:49;;;;;;;8.82;2.60;;;8.30;99.90;;;;;;5088959;28;20028;-74
2023/01/09 10:54:22;;;;;;;10.13;3.15;;;8.20;99.90;;;;;;5088567;28;20162;-74
2023/01/09 10:56:56;;;;;;;7.03;3.03;;;8.20;99.90;;;;;;5094892;28;20020;-74
2023/01/09 10:59:24;;;;;;;15.30;3.63;;;8.20;99.90;;;;;;5089577;28;20487;-73
2023/01/09 11:01:50;;;;;;;9.20;3.75;;;8.10;99.90;;;;;;5084593;28;20391;-73
2023/01/09 11:04:26;;;;;;;8.77;3.28;;;8.10;99.90;;;;;;5094788;28;20032;-74
2023/01/09 11:07:18;;;;;;;6.97;2.97;;;8.00;99.90;;;;;;5088739;28;20024;-74
2023/01/09 11:09:58;;;;;;;6.75;2.70;;;8.00;99.90;;;;;;5086201;28;20024;-74
2023/01/09 11:12:34;;;;;;;9.13;1.98;;;8.10;99.90;;;;;;5086454;28;20024;-74
2023/01/09 11:15:27;;;;;;;4.13;1.38;;;8.10;99.90;;;;;;5086745;28;20071;-74
2023/01/09 11:17:55;;;;;;;5.38;1.88;;;8.10;99.90;;;;;;5089882;28;20032;-74
2023/01/09 11:20:27;;;;;;;3.83;0.85;;;8.10;99.90;;;;;;5086714;28;20047;-74
2023/01/09 11:22:55;;;;;;;5.57;1.08;;;8.10;99.90;;;;;;5099257;28;20058;-73
2023/01/09 11:25:23;;;;;;;5.25;0.80;;;8.20;99.90;;;;;;5106224;28;20395;-74
2023/01/09 11:28:01;;;;;;;3.08;0.93;;;8.20;99.90;;;;;;5093217;28;20356;-74
2023/01/09 11:30:27;;;;;;;6.47;1.20;;;8.10;99.90;;;;;;5090610;28;20016;-73
2023/01/09 11:32:57;;;;;;;7.45;1.35;;;8.20;99.90;;;;;;5090560;28;20040;-74
2023/01/09 11:35:27;;;;;;;4.68;1.00;;;8.20;99.90;;;;;;5093104;28;20030;-74
2023/01/09 11:38:16;;;;;;;5.07;1.10;;;8.20;99.90;;;;;;5091378;28;20035;-74
2023/01/09 11:41:03;;;;;;;5.70;0.95;;;8.20;99.90;;;;;;5079664;28;20040;-74
2023/01/09 11:43:33;;;;;;;6.10;0.82;;;8.20;99.90;;;;;;5091972;28;20550;-74
2023/01/09 11:46:03;;;;;;;6.13;0.82;;;8.20;99.90;;;;;;5091262;28;20066;-74
2023/01/09 11:48:57;;;;;;;6.93;1.17;;;8.30;99.90;;;;;;5093781;28;20024;-74
2023/01/09 11:51:34;;;;;;;4.00;1.23;;;8.30;99.90;;;;;;5093082;28;20016;-73
2023/01/09 11:54:18;;;;;;;5.13;1.10;;;8.30;99.90;;;;;;5087898;28;20043;-74
2023/01/09 11:56:44;;;;;;;8.60;1.10;;;8.40;99.90;;;;;;5084288;28;20058;-74
2023/01/09 11:59:16;;;;;;;9.07;1.63;;;8.30;99.90;;;;;;5089154;28;20032;-73
2023/01/09 12:02:19;;;;;;;9.87;1.50;;;8.40;99.90;;;;;;5091070;28;20617;-73
2023/01/09 12:04:54;;;;;;;9.23;1.70;;;8.40;99.90;;;;;;5080249;28;20471;-74
2023/01/09 12:07:42;;;;;;;6.90;1.85;;;8.50;99.90;;;;;;5098218;28;20395;-74
2023/01/09 12:10:32;;;;;;;9.43;1.48;;;8.70;99.90;;;;;;5087648;28;20472;-73
2023/01/09 12:13:25;;;;;;;7.05;1.17;;;8.90;99.90;;;;;;5102939;28;20035;-74
2023/01/09 12:16:18;;;;;;;6.40;1.15;;;9.00;99.90;;;;;;5093879;28;20073;-74
2023/01/09 12:19:07;;;;;;;6.00;1.13;;;9.00;99.90;;;;;;5089495;28;20028;-74
2023/01/09 12:21:47;;;;;;;7.47;1.10;;;9.00;99.90;;;;;;5084916;28;20085;-74
2023/01/09 12:24:37;;;;;;;8.63;1.25;;;8.90;99.90;;;;;;5089576;28;20042;-74
2023/01/09 12:27:18;;;;;;;6.03;1.02;;;8.90;99.90;;;;;;5096672;28;20524;-73
2023/01/09 12:29:58;;;;;;;13.48;1.00;;;8.90;99.90;;;;;;5082920;28;20054;-74
2023/01/09 12:32:58;;;;;;;5.25;1.08;;;8.80;99.90;;;;;;5093942;28;20040;-74
2023/01/09 12:36:11;;;;;;;6.75;0.63;;;8.70;99.90;;;;;;5089429;28;20032;-74
2023/01/09 12:38:52;;;;;;;4.80;0.60;;;8.60;99.90;;;;;;5088734;28;20043;-74
2023/01/09 12:41:21;;;;;;;3.05;0.60;;;8.40;99.90;;;;;;5093437;28;20480;-74
2023/01/09 12:44:03;;;;;;;6.43;0.82;;;8.30;99.90;;;;;;5082118;28;20071;-76
2023/01/09 12:46:46;;;;;;;6.93;0.43;;;8.20;99.90;;;;;;5096308;28;20028;-74
2023/01/09 12:49:36;;;;;;;3.80;0.47;;;8.10;99.90;;;;;;5081920;28;20027;-72
2023/01/09 12:52:23;;;;;;;6.22;0.43;;;8.10;99.90;;;;;;5082082;28;20028;-72
2023/01/09 12:55:18;;;;;;;3.90;0.63;;;8.00;99.90;;;;;;5091846;28;20491;-73
2023/01/09 12:57:50;;;;;;;5.10;0.75;;;8.00;99.90;;;;;;5091034;28;20024;-72
2023/01/09 13:00:45;;;;;;;4.97;0.88;;;7.90;99.90;;;;;;5092143;28;20024;-72
2023/01/09 13:03:33;;;;;;;2.83;0.65;;;8.00;99.90;;;;;;5089486;28;20506;-74
2023/01/09 13:06:01;;;;;;;4.75;0.60;;;8.00;99.90;;;;;;5085614;28;20032;-73
2023/01/09 13:08:38;;;;;;;4.40;0.60;;;8.00;99.90;;;;;;5094734;28;20058;-72
2023/01/09 13:11:22;;;;;;;1.20;0.40;;;8.10;99.90;;;;;;5091355;28;20024;-72
2023/01/09 13:14:23;;;;;;;2.75;0.40;;;8.20;99.90;;;;;;5087705;28;20487;-74
2023/01/09 13:16:52;;;;;;;4.43;0.65;;;8.20;99.90;;;;;;5083025;28;20122;-73
2023/01/09 13:19:23;;;;;;;6.70;0.80;;;8.10;99.90;;;;;;5092212;28;20149;-74
2023/01/09 13:21:51;;;;;;;3.83;0.65;;;8.10;99.90;;;;;;5088792;28;20024;-73
2023/01/09 13:24:28;;;;;;;5.55;0.93;;;8.00;99.90;;;;;;5104991;28;20506;-73
2023/01/09 13:27:00;;;;;;;11.27;0.80;;;8.00;99.90;;;;;;5092095;28;20031;-74
2023/01/09 13:29:34;;;;;;;7.57;0.85;;;8.00;99.90;;;;;;5094852;28;20051;-74
2023/01/09 13:32:37;;;;;;;7.95;0.85;;;8.00;99.90;;;;;;5073077;28;20123;-73
2023/01/09 13:35:03;;;;;;;12.88;0.75;;;8.00;99.90;;;;;;5089454;28;20498;-74